createdAt,value
2023-01-04T00:02:22.740Z,101751.56
2023-01-04T00:05:29.981Z,101751.66
2023-01-04T00:08:37.369Z,101752.00
2023-01-04T00:11:46.657Z,101756.03
2023-01-04T00:14:54.262Z,101764.69
2023-01-04T00:18:01.934Z,101754.34
2023-01-04T00:21:08.491Z,101755.28
2023-01-04T00:24:16.425Z,101759.81
2023-01-04T00:27:22.485Z,101762.16
2023-01-04T00:30:33.417Z,101758.22
2023-01-04T00:33:38.528Z,101754.88
2023-01-04T00:36:45.175Z,101751.41
2023-01-04T00:39:53.630Z,101756.22
2023-01-04T00:43:02.161Z,101759.94
2023-01-04T00:46:13.793Z,101754.12
2023-01-04T00:49:22.889Z,101758.50
2023-01-04T00:52:29.911Z,101756.19
2023-01-04T00:55:37.670Z,101756.91
2023-01-04T00:58:45.126Z,101758.38
2023-01-04T01:01:52.812Z,101766.47
2023-01-04T01:04:59.359Z,101767.72
2023-01-04T01:08:26.508Z,101767.38
2023-01-04T01:11:32.190Z,101761.25
2023-01-04T01:14:40.159Z,101775.72
2023-01-04T01:17:49.722Z,101773.78
2023-01-04T01:20:59.828Z,101776.50
2023-01-04T01:24:07.013Z,101781.22
2023-01-04T01:27:15.192Z,101785.72
2023-01-04T01:30:23.166Z,101780.09
2023-01-04T01:33:31.308Z,101786.78
2023-01-04T01:36:37.925Z,101784.47
2023-01-04T01:39:47.120Z,101776.28
2023-01-04T01:42:54.640Z,101778.38
2023-01-04T01:46:00.888Z,101773.03
2023-01-04T01:49:16.343Z,101773.47
2023-01-04T01:52:30.703Z,101768.06
2023-01-04T01:55:39.068Z,101775.72
2023-01-04T01:58:50.588Z,101766.34
2023-01-04T02:01:59.465Z,101769.06
2023-01-04T02:05:07.389Z,101768.94
2023-01-04T02:08:15.075Z,101770.97
2023-01-04T02:11:21.837Z,101776.81
2023-01-04T02:14:31.638Z,101780.84
2023-01-04T02:17:36.303Z,101776.41
2023-01-04T02:20:53.369Z,101767.31
2023-01-04T02:24:02.256Z,101769.47
2023-01-04T02:27:24.681Z,101769.44
2023-01-04T02:30:54.046Z,101769.37
2023-01-04T02:34:20.195Z,101776.34
2023-01-04T02:37:45.332Z,101782.91
2023-01-04T02:41:00.843Z,101779.28
2023-01-04T02:44:30.838Z,101775.87
2023-01-04T02:47:56.159Z,101771.47
2023-01-04T02:51:04.888Z,101770.59
2023-01-04T02:54:18.839Z,101771.19
2023-01-04T02:57:43.444Z,101767.16
2023-01-04T03:01:18.936Z,101773.25
2023-01-04T03:04:49.398Z,101770.34
2023-01-04T03:08:22.442Z,101767.84
2023-01-04T03:12:00.908Z,101753.94
2023-01-04T03:15:16.295Z,101761.03
2023-01-04T03:18:24.994Z,101755.06
2023-01-04T03:21:32.614Z,101761.03
2023-01-04T03:24:58.128Z,101759.16
2023-01-04T03:28:23.528Z,101763.00
2023-01-04T03:31:54.354Z,101763.47
2023-01-04T03:35:19.414Z,101763.78
2023-01-04T03:38:57.721Z,101763.22
2023-01-04T03:42:27.827Z,101762.75
2023-01-04T03:45:55.532Z,101764.53
2023-01-04T03:49:08.627Z,101769.13
2023-01-04T03:52:18.132Z,101764.53
2023-01-04T03:55:26.552Z,101767.06
2023-01-04T03:58:35.569Z,101763.31
2023-01-04T04:01:45.710Z,101755.53
2023-01-04T04:05:11.937Z,101762.19
2023-01-04T04:08:31.156Z,101750.19
2023-01-04T04:11:36.932Z,101756.00
2023-01-04T04:14:44.795Z,101748.03
2023-01-04T04:17:53.707Z,101752.31
2023-01-04T04:21:02.199Z,101748.69
2023-01-04T04:24:17.609Z,101746.06
2023-01-04T04:27:23.406Z,101756.16
2023-01-04T04:30:32.531Z,101748.50
2023-01-04T04:33:38.148Z,101759.06
2023-01-04T04:36:45.201Z,101759.25
2023-01-04T04:39:54.045Z,101773.97
2023-01-04T04:43:01.715Z,101759.19
2023-01-04T04:46:10.290Z,101763.03
2023-01-04T04:49:20.162Z,101773.88
2023-01-04T04:52:26.279Z,101760.34
2023-01-04T04:55:33.377Z,101769.34
2023-01-04T04:58:40.099Z,101765.56
2023-01-04T05:01:48.968Z,101770.50
2023-01-04T05:04:56.966Z,101771.09
2023-01-04T05:08:03.877Z,101767.22
2023-01-04T05:11:15.739Z,101779.81
2023-01-04T05:14:26.849Z,101774.53
2023-01-04T05:17:37.069Z,101776.81
2023-01-04T05:20:48.679Z,101774.75
2023-01-04T05:23:54.600Z,101784.09
2023-01-04T05:27:01.045Z,101781.94
2023-01-04T05:30:25.693Z,101781.81
2023-01-04T05:33:33.477Z,101784.97
2023-01-04T05:36:38.924Z,101790.88
2023-01-04T05:39:46.956Z,101785.16
2023-01-04T05:42:54.236Z,101786.66
2023-01-04T05:46:01.162Z,101795.13
2023-01-04T05:49:11.317Z,101791.28
2023-01-04T05:52:20.279Z,101792.59
2023-01-04T05:55:28.518Z,101794.84
2023-01-04T05:58:35.401Z,101795.28
2023-01-04T06:01:41.393Z,101794.66
2023-01-04T06:04:54.609Z,101794.66
2023-01-04T06:08:05.033Z,101805.75
2023-01-04T06:11:13.842Z,101803.63
2023-01-04T06:14:21.671Z,101794.66
2023-01-04T06:17:29.041Z,101803.75
2023-01-04T06:20:37.584Z,101804.28
2023-01-04T06:23:48.571Z,101812.19
2023-01-04T06:26:57.694Z,101816.44
2023-01-04T06:30:05.594Z,101828.03
2023-01-04T06:33:16.964Z,101820.53
2023-01-04T06:36:24.348Z,101821.56
2023-01-04T06:39:31.371Z,101827.56
2023-01-04T06:42:50.365Z,101821.72
2023-01-04T06:45:57.691Z,101820.94
2023-01-04T06:49:07.817Z,101827.38
2023-01-04T06:52:13.657Z,101821.16
2023-01-04T06:55:19.823Z,101827.44
2023-01-04T06:58:24.694Z,101826.66
2023-01-04T07:01:32.002Z,101834.50
2023-01-04T07:04:38.757Z,101827.56
2023-01-04T07:07:46.383Z,101833.31
2023-01-04T07:10:55.969Z,101834.78
2023-01-04T07:14:00.986Z,101832.63
2023-01-04T07:17:06.512Z,101840.03
2023-01-04T07:20:15.833Z,101844.91
2023-01-04T07:23:24.840Z,101856.00
2023-01-04T07:26:33.275Z,101852.25
2023-01-04T07:29:41.818Z,101849.94
2023-01-04T07:32:50.934Z,101832.69
2023-01-04T07:35:56.383Z,101826.53
2023-01-04T07:39:01.608Z,101829.69
2023-01-04T07:42:09.270Z,101835.84
2023-01-04T07:45:17.491Z,101834.69
2023-01-04T07:48:21.617Z,101838.69
2023-01-04T07:51:27.591Z,101842.25
2023-01-04T07:54:33.037Z,101847.88
2023-01-04T07:57:42.760Z,101850.75
2023-01-04T08:00:51.961Z,101854.00
2023-01-04T08:03:57.906Z,101858.84
2023-01-04T08:07:04.656Z,101856.06
2023-01-04T08:10:08.342Z,101857.72
2023-01-04T08:13:13.393Z,101849.94
2023-01-04T08:16:22.781Z,101857.63
2023-01-04T08:19:28.748Z,101841.50
2023-01-04T08:22:33.313Z,101841.41
2023-01-04T08:25:37.414Z,101848.28
2023-01-04T08:28:45.145Z,101838.41
2023-01-04T08:31:51.114Z,101844.16
2023-01-04T08:34:54.445Z,101841.78
2023-01-04T08:38:20.040Z,101850.94
2023-01-04T08:41:55.990Z,101848.13
2023-01-04T08:44:57.070Z,101844.25
2023-01-04T08:48:04.223Z,101847.28
2023-01-04T08:51:09.849Z,101836.38
2023-01-04T08:54:15.661Z,101843.87
2023-01-04T08:57:21.454Z,101847.69
2023-01-04T09:00:32.750Z,101849.44
2023-01-04T09:03:38.278Z,101847.63
2023-01-04T09:06:44.047Z,101848.41
2023-01-04T09:09:49.523Z,101845.53
2023-01-04T09:12:57.374Z,101841.59
2023-01-04T09:16:04.934Z,101841.03
2023-01-04T09:19:16.623Z,101838.81
2023-01-04T09:22:27.041Z,101836.66
2023-01-04T09:25:33.483Z,101834.53
2023-01-04T09:28:39.531Z,101820.75
2023-01-04T09:31:45.674Z,101820.28
2023-01-04T09:34:51.248Z,101817.28
2023-01-04T09:37:56.175Z,101812.50
2023-01-04T09:41:03.068Z,101821.09
2023-01-04T09:44:09.674Z,101803.16
2023-01-04T09:47:18.588Z,101810.56
2023-01-04T09:50:42.049Z,101805.75
2023-01-04T09:53:47.879Z,101791.16
2023-01-04T09:56:56.006Z,101782.81
2023-01-04T10:00:18.089Z,101789.00
2023-01-04T10:03:26.621Z,101779.88
2023-01-04T10:06:32.763Z,101769.84
2023-01-04T10:09:38.699Z,101769.97
2023-01-04T10:12:59.656Z,101763.47
2023-01-04T10:16:44.066Z,101757.91
2023-01-04T10:23:31.480Z,101756.44
2023-01-04T10:26:56.851Z,101746.66
2023-01-04T10:30:01.748Z,101753.06
2023-01-04T10:33:14.777Z,101751.59
2023-01-04T10:36:21.708Z,101753.25
2023-01-04T10:39:32.453Z,101743.44
2023-01-04T10:42:45.729Z,101749.56
2023-01-04T10:45:50.150Z,101742.16
2023-01-04T10:49:02.356Z,101738.47
2023-01-04T10:52:16.927Z,101729.25
2023-01-04T10:55:26.545Z,101729.50
2023-01-04T10:58:39.819Z,101719.31
2023-01-04T11:01:56.527Z,101711.78
2023-01-04T11:05:07.569Z,101713.75
2023-01-04T11:08:24.426Z,101709.56
2023-01-04T11:11:37.300Z,101696.00
2023-01-04T11:14:44.354Z,101686.72
2023-01-04T11:17:50.943Z,101695.13
2023-01-04T11:20:55.911Z,101691.03
2023-01-04T11:24:30.558Z,101684.06
2023-01-04T11:27:32.969Z,101678.31
2023-01-04T11:30:47.014Z,101675.44
2023-01-04T11:33:57.587Z,101678.69
2023-01-04T11:37:02.622Z,101656.31
2023-01-04T11:40:24.765Z,101655.72
2023-01-04T11:43:33.500Z,101652.84
2023-01-04T11:46:38.375Z,101653.31
2023-01-04T11:49:45.129Z,101655.50
2023-01-04T11:52:50.659Z,101648.28
2023-01-04T11:56:11.912Z,101645.16
2023-01-04T11:59:28.170Z,101628.84
2023-01-04T12:03:00.233Z,101625.84
2023-01-04T12:06:20.023Z,101627.00
2023-01-04T12:09:26.461Z,101627.75
2023-01-04T12:12:33.546Z,101622.94
2023-01-04T12:15:39.750Z,101632.19
2023-01-04T12:18:49.419Z,101620.88
2023-01-04T12:21:57.791Z,101621.16
2023-01-04T12:25:06.365Z,101616.03
2023-01-04T12:28:29.646Z,101614.69
2023-01-04T12:31:36.725Z,101606.28
2023-01-04T12:34:45.772Z,101602.66
2023-01-04T12:37:54.021Z,101596.69
2023-01-04T12:41:00.868Z,101594.75
2023-01-04T12:44:28.671Z,101600.25
2023-01-04T12:47:51.721Z,101583.69
2023-01-04T12:51:31.214Z,101580.59
2023-01-04T12:54:51.840Z,101577.34
2023-01-04T12:58:02.680Z,101556.06
2023-01-04T13:01:10.290Z,101555.59
2023-01-04T13:04:28.715Z,101571.72
2023-01-04T13:07:42.128Z,101570.88
2023-01-04T13:10:55.717Z,101571.50
2023-01-04T13:14:04.654Z,101555.75
2023-01-04T13:17:15.700Z,101553.50
2023-01-04T13:20:26.952Z,101547.56
2023-01-04T13:23:35.123Z,101550.91
2023-01-04T13:26:43.151Z,101552.41
2023-01-04T13:29:51.978Z,101539.66
2023-01-04T13:33:25.527Z,101540.66
2023-01-04T13:36:26.041Z,101538.81
2023-01-04T13:39:32.529Z,101530.75
2023-01-04T13:42:42.142Z,101534.13
2023-01-04T13:45:59.204Z,101530.34
2023-01-04T13:49:18.460Z,101528.94
2023-01-04T13:52:53.113Z,101521.00
2023-01-04T13:55:55.240Z,101515.66
2023-01-04T13:59:00.567Z,101503.44
2023-01-04T14:02:16.021Z,101510.94
2023-01-04T14:05:23.253Z,101504.87
2023-01-04T14:08:33.534Z,101513.50
2023-01-04T14:12:08.674Z,101510.91
2023-01-04T14:15:24.731Z,101508.44
2023-01-04T14:18:32.335Z,101504.37
2023-01-04T14:21:37.691Z,101515.03
2023-01-04T14:25:09.108Z,101513.94
2023-01-04T14:28:25.874Z,101501.87
2023-01-04T14:31:36.694Z,101496.81
2023-01-04T14:34:45.135Z,101493.53
2023-01-04T14:37:51.431Z,101489.47
2023-01-04T14:40:58.242Z,101497.00
2023-01-04T14:44:23.340Z,101495.81
2023-01-04T14:47:29.370Z,101489.75
2023-01-04T14:50:35.109Z,101487.22
2023-01-04T14:53:39.150Z,101490.38
2023-01-04T14:56:43.617Z,101488.50
2023-01-04T14:59:47.541Z,101488.38
2023-01-04T15:02:52.564Z,101489.09
2023-01-04T15:05:56.985Z,101476.84
2023-01-04T15:09:00.945Z,101470.00
2023-01-04T15:12:05.209Z,101468.91
2023-01-04T15:15:09.706Z,101474.53
2023-01-04T15:18:16.190Z,101474.53
2023-01-04T15:21:22.023Z,101472.41
2023-01-04T15:24:32.796Z,101466.97
2023-01-04T15:27:43.149Z,101466.00
2023-01-04T15:30:50.073Z,101470.41
2023-01-04T15:33:57.054Z,101470.16
2023-01-04T15:37:02.155Z,101464.72
2023-01-04T15:40:09.578Z,101445.69
2023-01-04T15:43:18.259Z,101442.53
2023-01-04T15:46:24.788Z,101448.88
2023-01-04T15:49:33.151Z,101439.91
2023-01-04T15:52:39.370Z,101434.75
2023-01-04T15:55:43.735Z,101432.94
2023-01-04T15:58:51.942Z,101438.34
2023-01-04T16:01:58.536Z,101428.69
2023-01-04T16:05:03.510Z,101426.09
2023-01-04T16:08:08.308Z,101417.78
2023-01-04T16:11:17.101Z,101425.41
2023-01-04T16:14:23.636Z,101426.91
2023-01-04T16:17:29.405Z,101417.03
2023-01-04T16:20:36.642Z,101414.69
2023-01-04T16:23:42.652Z,101425.19
2023-01-04T16:26:49.296Z,101416.34
2023-01-04T16:29:53.998Z,101411.19
2023-01-04T16:33:00.104Z,101404.16
2023-01-04T16:36:10.102Z,101397.66
2023-01-04T16:39:14.063Z,101393.06
2023-01-04T16:42:19.911Z,101391.56
2023-01-04T16:45:24.952Z,101386.13
2023-01-04T16:48:30.134Z,101380.19
2023-01-04T16:51:36.460Z,101383.91
2023-01-04T16:54:45.297Z,101377.19
2023-01-04T16:57:50.964Z,101376.34
2023-01-04T17:01:14.230Z,101370.56
2023-01-04T17:04:27.240Z,101359.28
2023-01-04T17:07:34.303Z,101365.09
2023-01-04T17:10:43.553Z,101353.22
2023-01-04T17:13:51.021Z,101361.31
2023-01-04T17:16:57.301Z,101353.00
2023-01-04T17:20:07.314Z,101343.03
2023-01-04T17:23:13.098Z,101342.63
2023-01-04T17:26:28.104Z,101343.16
2023-01-04T17:29:35.033Z,101336.22
2023-01-04T17:32:42.367Z,101331.56
2023-01-04T17:35:49.762Z,101325.37
2023-01-04T17:38:55.978Z,101323.78
2023-01-04T17:42:00.727Z,101326.66
2023-01-04T17:45:08.812Z,101324.34
2023-01-04T17:48:14.963Z,101323.38
2023-01-04T17:51:22.617Z,101318.66
2023-01-04T17:54:28.531Z,101304.25
2023-01-04T17:57:36.324Z,101311.41
2023-01-04T18:00:41.554Z,101317.25
2023-01-04T18:03:49.776Z,101318.41
2023-01-04T18:06:55.782Z,101320.50
2023-01-04T18:10:04.252Z,101309.47
2023-01-04T18:13:09.116Z,101310.59
2023-01-04T18:16:24.224Z,101309.97
2023-01-04T18:19:31.651Z,101297.69
2023-01-04T18:22:40.844Z,101293.28
2023-01-04T18:25:45.393Z,101291.41
2023-01-04T18:28:50.385Z,101298.44
2023-01-04T18:31:55.005Z,101298.31
2023-01-04T18:35:05.760Z,101295.38
2023-01-04T18:38:11.530Z,101295.50
2023-01-04T18:41:20.105Z,101285.44
2023-01-04T18:44:35.667Z,101272.72
2023-01-04T18:47:42.088Z,101270.53
2023-01-04T18:50:49.796Z,101252.38
2023-01-04T18:53:58.076Z,101251.81
2023-01-04T18:57:07.335Z,101245.31
2023-01-04T19:00:13.886Z,101237.09
2023-01-04T19:03:20.508Z,101231.41
2023-01-04T19:06:33.363Z,101225.31
2023-01-04T19:09:46.452Z,101220.81
2023-01-04T19:12:54.648Z,101209.22
2023-01-04T19:16:02.407Z,101209.13
2023-01-04T19:19:10.497Z,101205.56
2023-01-04T19:22:19.099Z,101199.56
2023-01-04T19:25:28.475Z,101190.34
2023-01-04T19:28:34.756Z,101179.91
2023-01-04T19:31:40.562Z,101184.22
2023-01-04T19:34:45.958Z,101181.50
2023-01-04T19:37:52.682Z,101182.34
2023-01-04T19:41:00.114Z,101174.75
2023-01-04T19:44:08.159Z,101176.56
2023-01-04T19:47:12.833Z,101168.47
2023-01-04T19:50:19.312Z,101155.72
2023-01-04T19:53:27.289Z,101143.00
2023-01-04T19:56:33.313Z,101133.78
2023-01-04T19:59:42.699Z,101133.78
2023-01-04T20:02:50.753Z,101121.69
2023-01-04T20:05:59.417Z,101128.75
2023-01-04T20:09:05.047Z,101123.38
2023-01-04T20:12:11.349Z,101122.66
2023-01-04T20:15:16.187Z,101108.53
2023-01-04T20:18:24.712Z,101117.91
2023-01-04T20:21:30.456Z,101114.19
2023-01-04T20:24:34.838Z,101125.97
2023-01-04T20:27:41.407Z,101134.31
2023-01-04T20:30:47.865Z,101127.31
2023-01-04T20:33:58.015Z,101117.19
2023-01-04T20:37:06.835Z,101115.16
2023-01-04T20:40:13.313Z,101106.09
2023-01-04T20:43:38.046Z,101100.66
2023-01-04T20:46:48.121Z,101084.13
2023-01-04T20:49:54.208Z,101086.50
2023-01-04T20:53:03.169Z,101077.63
2023-01-04T20:56:14.619Z,101060.09
2023-01-04T20:59:21.070Z,101065.59
2023-01-04T21:02:27.521Z,101064.41
2023-01-04T21:05:40.107Z,101060.44
2023-01-04T21:08:44.444Z,101057.53
2023-01-04T21:11:47.657Z,101054.19
2023-01-04T21:14:54.465Z,101042.94
2023-01-04T21:18:02.088Z,101024.81
2023-01-04T21:21:12.815Z,101023.72
2023-01-04T21:24:18.679Z,101011.84
2023-01-04T21:27:25.598Z,101000.00
2023-01-04T21:30:30.860Z,101001.78
2023-01-04T21:33:39.329Z,100988.00
2023-01-04T21:36:48.170Z,100987.84
2023-01-04T21:39:56.008Z,100989.00
2023-01-04T21:43:03.263Z,100979.94
2023-01-04T21:46:11.634Z,100967.62
2023-01-04T21:49:18.199Z,100956.63
2023-01-04T21:52:23.731Z,100953.44
2023-01-04T21:55:34.183Z,100947.75
2023-01-04T21:58:43.718Z,100943.50
2023-01-04T22:01:50.802Z,100937.72
2023-01-04T22:04:58.861Z,100942.06
2023-01-04T22:08:06.675Z,100944.84
2023-01-04T22:11:12.666Z,100953.25
2023-01-04T22:14:19.862Z,100943.75
2023-01-04T22:17:26.000Z,100942.81
2023-01-04T22:20:32.051Z,100938.91
2023-01-04T22:23:40.530Z,100928.13
2023-01-04T22:26:47.888Z,100933.97
2023-01-04T22:29:55.838Z,100935.66
2023-01-04T22:33:01.933Z,100929.78
2023-01-04T22:36:21.677Z,100924.75
2023-01-04T22:39:28.492Z,100921.06
2023-01-04T22:42:38.327Z,100912.72
2023-01-04T22:45:43.031Z,100913.66
2023-01-04T22:48:51.061Z,100902.78
2023-01-04T22:51:59.032Z,100911.47
2023-01-04T22:55:08.369Z,100912.06
2023-01-04T22:58:14.561Z,100902.97
2023-01-04T23:01:26.111Z,100908.69
2023-01-04T23:04:32.365Z,100934.56
2023-01-04T23:07:40.329Z,100908.69
2023-01-04T23:10:46.560Z,100901.00
2023-01-04T23:13:53.721Z,100895.38
2023-01-04T23:17:01.012Z,100891.88
2023-01-04T23:20:10.539Z,100880.91
2023-01-04T23:23:18.875Z,100882.19
2023-01-04T23:26:28.304Z,100874.09
2023-01-04T23:29:34.464Z,100895.88
2023-01-04T23:32:42.358Z,100884.87
2023-01-04T23:35:48.233Z,100890.31
2023-01-04T23:38:56.232Z,100892.78
2023-01-04T23:42:03.030Z,100900.84
2023-01-04T23:45:08.806Z,100914.31
2023-01-04T23:48:12.814Z,100910.66
2023-01-04T23:51:18.774Z,100911.03
2023-01-04T23:54:24.587Z,100893.50
2023-01-04T23:57:33.916Z,100874.00
